الصفحة الرئيسية
METAR-TAF:

METAR-TAF

مطار :

Barquisimeto, فنزويلا

دائرة عرض: 10-04N, خط طول: 069-19W, ارتفاع: 613 متر

مراقبة الطقس الحالي

تاريخ ووقت الإصدار 1ساعة و 6 دقيقة قبل الساعة 14:03UTC
ريح 4 عقدة من الغرب/الشمال الغربي
درجة الحرارة 23°درجة مئوية
الرطوبة 61%
ضغط 1019 hPa

METAR: SVBM 011403Z AUTO 29004KT NCD 23/15 Q1019

زمن: 11:09 (15:09 UTC)

توقعات

تاريخ ووقت الإصدار 5ساعات و 9 دقيقة قبل الساعة 10:00UTC
التوقعات صالحة من01 الساعة 12 UTC إلى 02 الساعة 12 UTC
ريح 10 عقدة من الشرق
الرؤية 10 كم أو أكثر
غيوم متفرقة على ارتفاع 1600 قدم
أصبح
من 01 الساعة 14 UTC إلى 01 الساعة 18 UTC
ريح 12 عقدة من الشرق/الجنوب الشرقي
غيوم قليلة على ارتفاع 1600 قدم
غيوم متفرقة على ارتفاع 8000 قدم
أصبح
من 01 الساعة 23 UTC إلى 02 الساعة 03 UTC
ريح 15 عقدة من الشرق/الشمال الشرقي
غيوم مفككة على ارتفاع 1600 قدم

TAF: SVBM 011000Z 0112/0212 09010KT 9999 SCT016 TX36/0118Z TN22/0208Z BECMG 0114/0118 12012KT FEW016 SCT080 BECMG 0123/0203 07015KT BKN016

أرصاد الطقس والتوقعات من أكثر من 4000 مطار (تقارير الطقس للمطار METAR والتنبؤ بالطقس بالمطارTAF).

المحطات المتاحة هي النقط الصفراء والحمراء على الخريطة.

حرك المؤشر فوق النقطة لمعرفة اسم المحطة.

ثم انقر لمعرفة أرصاد وتوقعات الطقس.

لتغيير الخارطة: اضغط على الأزرار الخضراء مع رمز الصليب الأسود للتكبير. على الزر الأخضر مع شرطة للتصغير، أو على الأسهم الخضراء للخرائط المجاورة.


METAR-TAF: